KFTW/FTW METAR and TAF weather

Enter ICAO airport designator
Station Type Date Time Source
KFTW METAR 2019/04/22 15:53 UTC NOAA

KFTW 221553Z 17012G23KT 10SM BKN024 BKN029 21/16 A3004 RMK AO2 SLP165 T02110156


Station Type Date Time Source
KFTW Decoded METAR 2019/04/22 15:53 UTC NOAA

FORT WORTH MEACHAM INTERNATIONAL ., TX, United States (KFTW) 32-50N 097-22W 214M
Apr 22, 2019 - 11:53 AM EDT / 2019.04.22 1553 UTC
Wind: from the S (170 degrees) at 14 MPH (12 KT) gusting to 26 MPH (23 KT):0
Visibility: 10 mile(s):0
Sky conditions: mostly cloudy
Temperature: 70.0 F (21.1 C)
Dew Point: 60.1 F (15.6 C)
Relative Humidity: 70%
Pressure (altimeter): 30.04 in. Hg (1017 hPa)
ob: KFTW 221553Z 17012G23KT 10SM BKN024 BKN029 21/16 A3004 RMK AO2 SLP165 T02110156
cycle: 16

Station Type Date Time Source
KFTW TAF 2019/04/22 15:15 UTC NOAA

TAF
AMD KFTW 221512Z 2215/2312 17015KT P6SM BKN020 BKN025
TEMPO 2215/2216 BKN018
FM221700 17015G20KT P6SM SCT025 BKN035 BKN150
FM230100 17011KT P6SM BKN050 BKN150
FM230700 17011KT P6SM BKN018

Example: see airport list